sensor_id;sensor_type;location;lat;lon;timestamp;P1;P2;P0
55485;PMS5003;71262;-25.924;28.194;2024-01-16T00:01:10;41;38;
55485;PMS5003;71262;-25.924;28.194;2024-01-16T00:03:35;31;28;
55485;PMS5003;71262;-25.924;28.194;2024-01-16T00:06:01;26;23;
55485;PMS5003;71262;-25.924;28.194;2024-01-16T00:08:26;30;26;
55485;PMS5003;71262;-25.924;28.194;2024-01-16T00:10:53;26;24;
55485;PMS5003;71262;-25.924;28.194;2024-01-16T00:13:18;46;45;
55485;PMS5003;71262;-25.924;28.194;2024-01-16T00:15:43;30;26;
55485;PMS5003;71262;-25.924;28.194;2024-01-16T00:18:08;34;30;
55485;PMS5003;71262;-25.924;28.194;2024-01-16T00:20:34;24;21;
55485;PMS5003;71262;-25.924;28.194;2024-01-16T00:23:00;47;43;
55485;PMS5003;71262;-25.924;28.194;2024-01-16T00:25:25;29;27;
55485;PMS5003;71262;-25.924;28.194;2024-01-16T00:27:51;40;36;
55485;PMS5003;71262;-25.924;28.194;2024-01-16T00:30:16;29;26;
55485;PMS5003;71262;-25.924;28.194;2024-01-16T00:32:42;23;21;
55485;PMS5003;71262;-25.924;28.194;2024-01-16T00:35:08;44;40;
55485;PMS5003;71262;-25.924;28.194;2024-01-16T00:37:33;28;25;
55485;PMS5003;71262;-25.924;28.194;2024-01-16T00:39:58;26;23;
55485;PMS5003;71262;-25.924;28.194;2024-01-16T00:42:23;30;26;
55485;PMS5003;71262;-25.924;28.194;2024-01-16T00:44:49;24;21;
55485;PMS5003;71262;-25.924;28.194;2024-01-16T00:47:15;18;14;
55485;PMS5003;71262;-25.924;28.194;2024-01-16T00:49:40;35;32;
55485;PMS5003;71262;-25.924;28.194;2024-01-16T00:52:06;44;42;
55485;PMS5003;71262;-25.924;28.194;2024-01-16T00:54:30;29;27;
55485;PMS5003;71262;-25.924;28.194;2024-01-16T00:56:55;32;27;
55485;PMS5003;71262;-25.924;28.194;2024-01-16T00:59:20;47;43;
55485;PMS5003;71262;-25.924;28.194;2024-01-16T01:01:45;27;25;
55485;PMS5003;71262;-25.924;28.194;2024-01-16T01:04:11;31;27;
55485;PMS5003;71262;-25.924;28.194;2024-01-16T01:06:37;30;28;
55485;PMS5003;71262;-25.924;28.194;2024-01-16T01:09:02;35;31;
55485;PMS5003;71262;-25.924;28.194;2024-01-16T01:11:27;34;30;
55485;PMS5003;71262;-25.924;28.194;2024-01-16T01:13:53;23;19;
55485;PMS5003;71262;-25.924;28.194;2024-01-16T01:16:18;39;35;
55485;PMS5003;71262;-25.924;28.194;2024-01-16T01:18:43;40;37;
55485;PMS5003;71262;-25.924;28.194;2024-01-16T01:21:09;31;27;
55485;PMS5003;71262;-25.924;28.194;2024-01-16T01:23:34;41;37;
55485;PMS5003;71262;-25.924;28.194;2024-01-16T01:25:59;23;17;
55485;PMS5003;71262;-25.924;28.194;2024-01-16T01:28:24;36;32;
55485;PMS5003;71262;-25.924;28.194;2024-01-16T01:30:49;38;36;
55485;PMS5003;71262;-25.924;28.194;2024-01-16T01:33:15;31;26;
55485;PMS5003;71262;-25.924;28.194;2024-01-16T01:35:40;25;22;
55485;PMS5003;71262;-25.924;28.194;2024-01-16T01:38:06;23;20;
55485;PMS5003;71262;-25.924;28.194;2024-01-16T01:40:32;17;13;
55485;PMS5003;71262;-25.924;28.194;2024-01-16T01:42:57;28;23;
55485;PMS5003;71262;-25.924;28.194;2024-01-16T01:45:22;38;34;
55485;PMS5003;71262;-25.924;28.194;2024-01-16T01:47:48;57;48;
55485;PMS5003;71262;-25.924;28.194;2024-01-16T01:50:13;27;18;
55485;PMS5003;71262;-25.924;28.194;2024-01-16T01:52:40;37;33;
55485;PMS5003;71262;-25.924;28.194;2024-01-16T01:55:05;27;23;
55485;PMS5003;71262;-25.924;28.194;2024-01-16T01:57:30;34;30;
55485;PMS5003;71262;-25.924;28.194;2024-01-16T01:59:55;25;22;
55485;PMS5003;71262;-25.924;28.194;2024-01-16T02:02:21;29;26;
55485;PMS5003;71262;-25.924;28.194;2024-01-16T02:04:46;31;25;
55485;PMS5003;71262;-25.924;28.194;2024-01-16T02:07:12;35;33;
55485;PMS5003;71262;-25.924;28.194;2024-01-16T02:09:37;35;32;
55485;PMS5003;71262;-25.924;28.194;2024-01-16T02:12:03;21;18;
55485;PMS5003;71262;-25.924;28.194;2024-01-16T02:14:28;27;24;
55485;PMS5003;71262;-25.924;28.194;2024-01-16T02:16:53;25;22;
55485;PMS5003;71262;-25.924;28.194;2024-01-16T02:19:19;33;31;
55485;PMS5003;71262;-25.924;28.194;2024-01-16T02:21:46;30;26;
55485;PMS5003;71262;-25.924;28.194;2024-01-16T02:24:10;27;23;
55485;PMS5003;71262;-25.924;28.194;2024-01-16T02:26:36;45;41;
55485;PMS5003;71262;-25.924;28.194;2024-01-16T02:29:02;33;29;
55485;PMS5003;71262;-25.924;28.194;2024-01-16T02:31:27;29;26;
55485;PMS5003;71262;-25.924;28.194;2024-01-16T02:33:52;22;17;
55485;PMS5003;71262;-25.924;28.194;2024-01-16T02:36:17;26;21;
55485;PMS5003;71262;-25.924;28.194;2024-01-16T02:38:42;24;18;
55485;PMS5003;71262;-25.924;28.194;2024-01-16T02:41:07;27;22;
55485;PMS5003;71262;-25.924;28.194;2024-01-16T02:43:33;32;28;
55485;PMS5003;71262;-25.924;28.194;2024-01-16T02:45:59;38;35;
55485;PMS5003;71262;-25.924;28.194;2024-01-16T02:48:24;34;27;
55485;PMS5003;71262;-25.924;28.194;2024-01-16T02:50:50;34;29;
55485;PMS5003;71262;-25.924;28.194;2024-01-16T02:53:15;34;31;
55485;PMS5003;71262;-25.924;28.194;2024-01-16T02:55:40;28;24;
55485;PMS5003;71262;-25.924;28.194;2024-01-16T02:58:06;23;19;
55485;PMS5003;71262;-25.924;28.194;2024-01-16T03:00:32;37;30;
55485;PMS5003;71262;-25.924;28.194;2024-01-16T03:02:56;31;28;
55485;PMS5003;71262;-25.924;28.194;2024-01-16T03:05:21;23;19;
55485;PMS5003;71262;-25.924;28.194;2024-01-16T03:07:47;38;36;
55485;PMS5003;71262;-25.924;28.194;2024-01-16T03:10:12;23;20;
55485;PMS5003;71262;-25.924;28.194;2024-01-16T03:12:38;35;32;
55485;PMS5003;71262;-25.924;28.194;2024-01-16T03:15:04;27;24;
55485;PMS5003;71262;-25.924;28.194;2024-01-16T03:17:28;30;26;
55485;PMS5003;71262;-25.924;28.194;2024-01-16T03:19:53;21;16;
55485;PMS5003;71262;-25.924;28.194;2024-01-16T03:22:19;21;18;
55485;PMS5003;71262;-25.924;28.194;2024-01-16T03:24:44;26;22;
55485;PMS5003;71262;-25.924;28.194;2024-01-16T03:27:09;25;22;
55485;PMS5003;71262;-25.924;28.194;2024-01-16T03:29:35;30;25;
55485;PMS5003;71262;-25.924;28.194;2024-01-16T03:32:00;31;27;
55485;PMS5003;71262;-25.924;28.194;2024-01-16T03:34:26;27;24;
55485;PMS5003;71262;-25.924;28.194;2024-01-16T03:36:51;27;23;
55485;PMS5003;71262;-25.924;28.194;2024-01-16T03:39:16;25;21;
55485;PMS5003;71262;-25.924;28.194;2024-01-16T03:41:42;23;20;
55485;PMS5003;71262;-25.924;28.194;2024-01-16T03:44:07;36;33;
55485;PMS5003;71262;-25.924;28.194;2024-01-16T03:46:33;24;20;
55485;PMS5003;71262;-25.924;28.194;2024-01-16T03:48:59;32;30;
55485;PMS5003;71262;-25.924;28.194;2024-01-16T03:51:24;25;22;
55485;PMS5003;71262;-25.924;28.194;2024-01-16T03:53:50;32;29;
55485;PMS5003;71262;-25.924;28.194;2024-01-16T03:56:15;27;23;
55485;PMS5003;71262;-25.924;28.194;2024-01-16T03:58:41;32;28;
55485;PMS5003;71262;-25.924;28.194;2024-01-16T04:01:06;27;20;
55485;PMS5003;71262;-25.924;28.194;2024-01-16T04:03:32;27;24;
55485;PMS5003;71262;-25.924;28.194;2024-01-16T04:05:58;28;25;
55485;PMS5003;71262;-25.924;28.194;2024-01-16T04:08:23;27;24;
55485;PMS5003;71262;-25.924;28.194;2024-01-16T04:10:49;29;24;
55485;PMS5003;71262;-25.924;28.194;2024-01-16T04:13:15;24;21;
55485;PMS5003;71262;-25.924;28.194;2024-01-16T04:15:40;28;22;
55485;PMS5003;71262;-25.924;28.194;2024-01-16T04:18:06;32;27;
55485;PMS5003;71262;-25.924;28.194;2024-01-16T04:20:31;26;21;
55485;PMS5003;71262;-25.924;28.194;2024-01-16T04:22:57;23;18;
55485;PMS5003;71262;-25.924;28.194;2024-01-16T04:25:23;29;24;
55485;PMS5003;71262;-25.924;28.194;2024-01-16T04:27:48;30;27;
55485;PMS5003;71262;-25.924;28.194;2024-01-16T04:30:14;41;37;
55485;PMS5003;71262;-25.924;28.194;2024-01-16T04:32:40;24;18;
55485;PMS5003;71262;-25.924;28.194;2024-01-16T04:35:06;26;22;
55485;PMS5003;71262;-25.924;28.194;2024-01-16T04:37:31;34;31;
55485;PMS5003;71262;-25.924;28.194;2024-01-16T04:39:56;30;25;
55485;PMS5003;71262;-25.924;28.194;2024-01-16T04:42:22;24;19;
55485;PMS5003;71262;-25.924;28.194;2024-01-16T04:44:48;28;21;
55485;PMS5003;71262;-25.924;28.194;2024-01-16T04:47:13;26;21;
55485;PMS5003;71262;-25.924;28.194;2024-01-16T04:49:39;41;37;
55485;PMS5003;71262;-25.924;28.194;2024-01-16T04:52:05;23;19;
55485;PMS5003;71262;-25.924;28.194;2024-01-16T04:54:30;26;21;
55485;PMS5003;71262;-25.924;28.194;2024-01-16T04:56:56;22;15;
55485;PMS5003;71262;-25.924;28.194;2024-01-16T04:59:22;23;18;
55485;PMS5003;71262;-25.924;28.194;2024-01-16T05:01:47;28;24;
55485;PMS5003;71262;-25.924;28.194;2024-01-16T05:04:13;29;26;
55485;PMS5003;71262;-25.924;28.194;2024-01-16T05:06:38;22;17;
55485;PMS5003;71262;-25.924;28.194;2024-01-16T05:09:04;28;25;
55485;PMS5003;71262;-25.924;28.194;2024-01-16T05:11:30;38;32;
55485;PMS5003;71262;-25.924;28.194;2024-01-16T05:13:55;29;25;
55485;PMS5003;71262;-25.924;28.194;2024-01-16T05:16:21;24;18;
55485;PMS5003;71262;-25.924;28.194;2024-01-16T05:18:47;25;22;
55485;PMS5003;71262;-25.924;28.194;2024-01-16T05:21:13;22;18;
55485;PMS5003;71262;-25.924;28.194;2024-01-16T05:23:38;28;24;
55485;PMS5003;71262;-25.924;28.194;2024-01-16T05:26:04;22;18;
55485;PMS5003;71262;-25.924;28.194;2024-01-16T05:28:30;26;23;
55485;PMS5003;71262;-25.924;28.194;2024-01-16T05:30:56;26;22;
55485;PMS5003;71262;-25.924;28.194;2024-01-16T05:33:21;25;20;
55485;PMS5003;71262;-25.924;28.194;2024-01-16T05:35:47;45;37;
55485;PMS5003;71262;-25.924;28.194;2024-01-16T05:38:13;45;38;
55485;PMS5003;71262;-25.924;28.194;2024-01-16T05:40:38;39;33;
55485;PMS5003;71262;-25.924;28.194;2024-01-16T05:43:04;51;39;
55485;PMS5003;71262;-25.924;28.194;2024-01-16T05:45:29;33;27;
55485;PMS5003;71262;-25.924;28.194;2024-01-16T05:47:54;44;37;
55485;PMS5003;71262;-25.924;28.194;2024-01-16T05:50:20;34;31;
55485;PMS5003;71262;-25.924;28.194;2024-01-16T05:52:45;37;29;
55485;PMS5003;71262;-25.924;28.194;2024-01-16T05:55:10;22;19;
55485;PMS5003;71262;-25.924;28.194;2024-01-16T05:57:36;49;41;
55485;PMS5003;71262;-25.924;28.194;2024-01-16T06:00:02;29;25;
55485;PMS5003;71262;-25.924;28.194;2024-01-16T06:02:27;23;17;
55485;PMS5003;71262;-25.924;28.194;2024-01-16T06:04:52;18;14;
55485;PMS5003;71262;-25.924;28.194;2024-01-16T06:07:18;20;17;
55485;PMS5003;71262;-25.924;28.194;2024-01-16T06:09:44;33;32;
55485;PMS5003;71262;-25.924;28.194;2024-01-16T06:12:09;19;14;
55485;PMS5003;71262;-25.924;28.194;2024-01-16T06:14:35;39;35;
55485;PMS5003;71262;-25.924;28.194;2024-01-16T06:17:00;22;17;
55485;PMS5003;71262;-25.924;28.194;2024-01-16T06:19:25;18;16;
55485;PMS5003;71262;-25.924;28.194;2024-01-16T06:21:51;24;19;
55485;PMS5003;71262;-25.924;28.194;2024-01-16T06:24:16;23;20;
55485;PMS5003;71262;-25.924;28.194;2024-01-16T06:26:41;16;15;
55485;PMS5003;71262;-25.924;28.194;2024-01-16T06:29:07;16;16;
55485;PMS5003;71262;-25.924;28.194;2024-01-16T06:31:33;13;11;
55485;PMS5003;71262;-25.924;28.194;2024-01-16T06:33:59;16;13;
55485;PMS5003;71262;-25.924;28.194;2024-01-16T06:36:25;18;18;
55485;PMS5003;71262;-25.924;28.194;2024-01-16T06:38:50;22;22;
55485;PMS5003;71262;-25.924;28.194;2024-01-16T06:41:15;39;37;
55485;PMS5003;71262;-25.924;28.194;2024-01-16T06:43:41;35;30;
55485;PMS5003;71262;-25.924;28.194;2024-01-16T06:46:07;16;13;
55485;PMS5003;71262;-25.924;28.194;2024-01-16T06:48:34;22;21;
55485;PMS5003;71262;-25.924;28.194;2024-01-16T06:50:58;24;22;
55485;PMS5003;71262;-25.924;28.194;2024-01-16T06:53:23;29;28;
55485;PMS5003;71262;-25.924;28.194;2024-01-16T06:55:49;12;11;
55485;PMS5003;71262;-25.924;28.194;2024-01-16T06:58:15;11;9;
55485;PMS5003;71262;-25.924;28.194;2024-01-16T07:00:41;15;13;
55485;PMS5003;71262;-25.924;28.194;2024-01-16T07:03:07;13;12;
55485;PMS5003;71262;-25.924;28.194;2024-01-16T07:05:33;13;11;
55485;PMS5003;71262;-25.924;28.194;2024-01-16T07:07:58;10;10;
55485;PMS5003;71262;-25.924;28.194;2024-01-16T07:10:25;9;9;
55485;PMS5003;71262;-25.924;28.194;2024-01-16T07:12:50;12;11;
55485;PMS5003;71262;-25.924;28.194;2024-01-16T07:15:16;14;13;
55485;PMS5003;71262;-25.924;28.194;2024-01-16T07:17:42;18;16;
55485;PMS5003;71262;-25.924;28.194;2024-01-16T07:20:08;26;25;
55485;PMS5003;71262;-25.924;28.194;2024-01-16T07:22:33;38;37;
55485;PMS5003;71262;-25.924;28.194;2024-01-16T07:24:58;24;23;
55485;PMS5003;71262;-25.924;28.194;2024-01-16T07:27:24;19;18;
55485;PMS5003;71262;-25.924;28.194;2024-01-16T07:29:50;34;34;
55485;PMS5003;71262;-25.924;28.194;2024-01-16T07:32:15;23;22;
55485;PMS5003;71262;-25.924;28.194;2024-01-16T07:34:41;38;38;
55485;PMS5003;71262;-25.924;28.194;2024-01-16T07:37:07;22;17;
55485;PMS5003;71262;-25.924;28.194;2024-01-16T07:39:32;24;24;
55485;PMS5003;71262;-25.924;28.194;2024-01-16T07:41:58;26;24;
55485;PMS5003;71262;-25.924;28.194;2024-01-16T07:44:23;29;27;
55485;PMS5003;71262;-25.924;28.194;2024-01-16T07:46:48;20;20;
55485;PMS5003;71262;-25.924;28.194;2024-01-16T07:49:13;13;10;
55485;PMS5003;71262;-25.924;28.194;2024-01-16T07:51:39;15;15;
55485;PMS5003;71262;-25.924;28.194;2024-01-16T07:54:06;16;14;
55485;PMS5003;71262;-25.924;28.194;2024-01-16T07:56:31;12;12;
55485;PMS5003;71262;-25.924;28.194;2024-01-16T07:58:57;12;12;
55485;PMS5003;71262;-25.924;28.194;2024-01-16T08:01:23;13;10;
55485;PMS5003;71262;-25.924;28.194;2024-01-16T08:03:48;13;11;
55485;PMS5003;71262;-25.924;28.194;2024-01-16T08:06:13;20;17;
55485;PMS5003;71262;-25.924;28.194;2024-01-16T08:08:39;15;13;
55485;PMS5003;71262;-25.924;28.194;2024-01-16T08:11:04;18;15;
55485;PMS5003;71262;-25.924;28.194;2024-01-16T08:13:30;13;13;
55485;PMS5003;71262;-25.924;28.194;2024-01-16T08:15:56;14;11;
55485;PMS5003;71262;-25.924;28.194;2024-01-16T08:18:21;13;13;
55485;PMS5003;71262;-25.924;28.194;2024-01-16T08:20:47;11;10;
55485;PMS5003;71262;-25.924;28.194;2024-01-16T08:23:12;15;13;
55485;PMS5003;71262;-25.924;28.194;2024-01-16T08:25:38;11;11;
55485;PMS5003;71262;-25.924;28.194;2024-01-16T08:28:04;11;11;
55485;PMS5003;71262;-25.924;28.194;2024-01-16T08:30:29;11;10;
55485;PMS5003;71262;-25.924;28.194;2024-01-16T08:32:55;12;10;
55485;PMS5003;71262;-25.924;28.194;2024-01-16T08:35:21;13;11;
55485;PMS5003;71262;-25.924;28.194;2024-01-16T08:37:47;16;12;
55485;PMS5003;71262;-25.924;28.194;2024-01-16T08:40:12;17;15;
55485;PMS5003;71262;-25.924;28.194;2024-01-16T08:42:38;16;14;
55485;PMS5003;71262;-25.924;28.194;2024-01-16T08:45:03;12;12;
55485;PMS5003;71262;-25.924;28.194;2024-01-16T08:47:29;15;13;
55485;PMS5003;71262;-25.924;28.194;2024-01-16T08:49:55;18;14;
55485;PMS5003;71262;-25.924;28.194;2024-01-16T08:52:20;16;16;
55485;PMS5003;71262;-25.924;28.194;2024-01-16T08:54:46;15;14;
55485;PMS5003;71262;-25.924;28.194;2024-01-16T08:57:12;11;10;
55485;PMS5003;71262;-25.924;28.194;2024-01-16T08:59:37;19;18;
55485;PMS5003;71262;-25.924;28.194;2024-01-16T09:02:03;14;12;
55485;PMS5003;71262;-25.924;28.194;2024-01-16T09:04:29;11;10;
55485;PMS5003;71262;-25.924;28.194;2024-01-16T09:06:54;19;18;
55485;PMS5003;71262;-25.924;28.194;2024-01-16T09:09:20;20;18;
55485;PMS5003;71262;-25.924;28.194;2024-01-16T09:11:45;17;17;
55485;PMS5003;71262;-25.924;28.194;2024-01-16T09:14:10;15;13;
55485;PMS5003;71262;-25.924;28.194;2024-01-16T09:16:36;20;18;
55485;PMS5003;71262;-25.924;28.194;2024-01-16T09:19:02;14;12;
55485;PMS5003;71262;-25.924;28.194;2024-01-16T09:21:27;17;16;
55485;PMS5003;71262;-25.924;28.194;2024-01-16T09:23:53;15;13;
55485;PMS5003;71262;-25.924;28.194;2024-01-16T09:26:18;19;16;
55485;PMS5003;71262;-25.924;28.194;2024-01-16T09:28:44;19;16;
55485;PMS5003;71262;-25.924;28.194;2024-01-16T09:31:10;20;19;
55485;PMS5003;71262;-25.924;28.194;2024-01-16T09:33:35;24;22;
55485;PMS5003;71262;-25.924;28.194;2024-01-16T09:36:00;21;20;
55485;PMS5003;71262;-25.924;28.194;2024-01-16T09:38:26;15;13;
55485;PMS5003;71262;-25.924;28.194;2024-01-16T09:40:51;23;16;
55485;PMS5003;71262;-25.924;28.194;2024-01-16T09:43:17;18;15;
55485;PMS5003;71262;-25.924;28.194;2024-01-16T09:45:42;23;19;
55485;PMS5003;71262;-25.924;28.194;2024-01-16T09:48:07;23;17;
55485;PMS5003;71262;-25.924;28.194;2024-01-16T09:50:33;18;16;
55485;PMS5003;71262;-25.924;28.194;2024-01-16T09:52:59;17;16;
55485;PMS5003;71262;-25.924;28.194;2024-01-16T09:55:24;17;13;
55485;PMS5003;71262;-25.924;28.194;2024-01-16T09:57:50;16;15;
55485;PMS5003;71262;-25.924;28.194;2024-01-16T10:00:15;16;14;
55485;PMS5003;71262;-25.924;28.194;2024-01-16T10:02:41;19;15;
55485;PMS5003;71262;-25.924;28.194;2024-01-16T10:05:07;17;13;
55485;PMS5003;71262;-25.924;28.194;2024-01-16T10:07:32;17;14;
55485;PMS5003;71262;-25.924;28.194;2024-01-16T10:09:58;23;17;
55485;PMS5003;71262;-25.924;28.194;2024-01-16T10:12:23;17;16;
55485;PMS5003;71262;-25.924;28.194;2024-01-16T10:14:48;13;12;
55485;PMS5003;71262;-25.924;28.194;2024-01-16T10:17:14;15;14;
55485;PMS5003;71262;-25.924;28.194;2024-01-16T10:22:05;17;16;
55485;PMS5003;71262;-25.924;28.194;2024-01-16T10:24:31;13;12;
55485;PMS5003;71262;-25.924;28.194;2024-01-16T10:26:58;20;18;
55485;PMS5003;71262;-25.924;28.194;2024-01-16T10:29:22;17;15;
55485;PMS5003;71262;-25.924;28.194;2024-01-16T10:31:47;23;19;
55485;PMS5003;71262;-25.924;28.194;2024-01-16T10:36:38;23;16;
55485;PMS5003;71262;-25.924;28.194;2024-01-16T10:39:04;26;25;
55485;PMS5003;71262;-25.924;28.194;2024-01-16T10:41:30;30;28;
55485;PMS5003;71262;-25.924;28.194;2024-01-16T10:46:20;22;22;
55485;PMS5003;71262;-25.924;28.194;2024-01-16T10:48:58;23;21;
55485;PMS5003;71262;-25.924;28.194;2024-01-16T10:51:11;17;15;
55485;PMS5003;71262;-25.924;28.194;2024-01-16T10:53:36;13;12;
55485;PMS5003;71262;-25.924;28.194;2024-01-16T10:56:02;12;10;
55485;PMS5003;71262;-25.924;28.194;2024-01-16T10:58:28;14;12;
55485;PMS5003;71262;-25.924;28.194;2024-01-16T11:00:54;15;12;
55485;PMS5003;71262;-25.924;28.194;2024-01-16T11:03:21;13;11;
55485;PMS5003;71262;-25.924;28.194;2024-01-16T11:05:45;14;12;
55485;PMS5003;71262;-25.924;28.194;2024-01-16T11:08:11;11;11;
55485;PMS5003;71262;-25.924;28.194;2024-01-16T11:10:37;15;14;
55485;PMS5003;71262;-25.924;28.194;2024-01-16T11:13:03;11;10;
55485;PMS5003;71262;-25.924;28.194;2024-01-16T11:15:28;10;10;
55485;PMS5003;71262;-25.924;28.194;2024-01-16T11:17:54;12;10;
55485;PMS5003;71262;-25.924;28.194;2024-01-16T11:20:20;17;15;
55485;PMS5003;71262;-25.924;28.194;2024-01-16T11:22:46;12;12;
55485;PMS5003;71262;-25.924;28.194;2024-01-16T11:25:12;14;14;
55485;PMS5003;71262;-25.924;28.194;2024-01-16T11:27:37;15;13;
55485;PMS5003;71262;-25.924;28.194;2024-01-16T11:30:03;10;10;
55485;PMS5003;71262;-25.924;28.194;2024-01-16T11:34:54;18;12;
55485;PMS5003;71262;-25.924;28.194;2024-01-16T11:37:24;23;14;
55485;PMS5003;71262;-25.924;28.194;2024-01-16T11:39:45;11;10;
55485;PMS5003;71262;-25.924;28.194;2024-01-16T11:42:10;12;12;
55485;PMS5003;71262;-25.924;28.194;2024-01-16T11:44:38;9;9;
55485;PMS5003;71262;-25.924;28.194;2024-01-16T11:47:03;12;10;
55485;PMS5003;71262;-25.924;28.194;2024-01-16T11:49:28;12;11;
55485;PMS5003;71262;-25.924;28.194;2024-01-16T11:51:54;12;11;
55485;PMS5003;71262;-25.924;28.194;2024-01-16T11:54:20;16;13;
55485;PMS5003;71262;-25.924;28.194;2024-01-16T12:01:38;13;11;
55485;PMS5003;71262;-25.924;28.194;2024-01-16T12:04:03;10;10;
55485;PMS5003;71262;-25.924;28.194;2024-01-16T12:06:28;16;14;
55485;PMS5003;71262;-25.924;28.194;2024-01-16T12:08:54;16;14;
55485;PMS5003;71262;-25.924;28.194;2024-01-16T12:11:19;13;10;
55485;PMS5003;71262;-25.924;28.194;2024-01-16T12:13:47;15;14;
55485;PMS5003;71262;-25.924;28.194;2024-01-16T12:16:10;17;15;
55485;PMS5003;71262;-25.924;28.194;2024-01-16T12:18:35;13;11;
55485;PMS5003;71262;-25.924;28.194;2024-01-16T12:23:26;14;12;
55485;PMS5003;71262;-25.924;28.194;2024-01-16T12:25:52;12;11;
55485;PMS5003;71262;-25.924;28.194;2024-01-16T12:28:19;13;12;
55485;PMS5003;71262;-25.924;28.194;2024-01-16T12:30:48;12;10;
55485;PMS5003;71262;-25.924;28.194;2024-01-16T12:33:09;10;9;
55485;PMS5003;71262;-25.924;28.194;2024-01-16T12:35:35;12;11;
55485;PMS5003;71262;-25.924;28.194;2024-01-16T12:38:01;12;11;
55485;PMS5003;71262;-25.924;28.194;2024-01-16T12:40:26;9;8;
55485;PMS5003;71262;-25.924;28.194;2024-01-16T12:42:53;12;11;
55485;PMS5003;71262;-25.924;28.194;2024-01-16T12:45:18;10;10;
55485;PMS5003;71262;-25.924;28.194;2024-01-16T12:47:43;13;10;
55485;PMS5003;71262;-25.924;28.194;2024-01-16T12:50:09;10;9;
55485;PMS5003;71262;-25.924;28.194;2024-01-16T12:52:35;11;8;
55485;PMS5003;71262;-25.924;28.194;2024-01-16T12:55:01;11;10;
55485;PMS5003;71262;-25.924;28.194;2024-01-16T12:57:28;11;11;
55485;PMS5003;71262;-25.924;28.194;2024-01-16T12:59:53;10;9;
55485;PMS5003;71262;-25.924;28.194;2024-01-16T13:02:20;8;8;
55485;PMS5003;71262;-25.924;28.194;2024-01-16T13:04:45;11;10;
55485;PMS5003;71262;-25.924;28.194;2024-01-16T13:07:10;9;9;
55485;PMS5003;71262;-25.924;28.194;2024-01-16T13:09:36;8;7;
55485;PMS5003;71262;-25.924;28.194;2024-01-16T13:12:01;11;10;
55485;PMS5003;71262;-25.924;28.194;2024-01-16T13:14:27;10;9;
55485;PMS5003;71262;-25.924;28.194;2024-01-16T13:16:53;10;9;
55485;PMS5003;71262;-25.924;28.194;2024-01-16T13:19:19;11;10;
55485;PMS5003;71262;-25.924;28.194;2024-01-16T13:21:45;9;9;
55485;PMS5003;71262;-25.924;28.194;2024-01-16T13:24:11;8;8;
55485;PMS5003;71262;-25.924;28.194;2024-01-16T13:26:36;15;10;
55485;PMS5003;71262;-25.924;28.194;2024-01-16T13:29:02;12;11;
55485;PMS5003;71262;-25.924;28.194;2024-01-16T13:31:28;12;10;
55485;PMS5003;71262;-25.924;28.194;2024-01-16T13:33:54;11;10;
55485;PMS5003;71262;-25.924;28.194;2024-01-16T13:36:20;10;10;
55485;PMS5003;71262;-25.924;28.194;2024-01-16T13:38:45;14;12;
55485;PMS5003;71262;-25.924;28.194;2024-01-16T13:41:11;44;31;
55485;PMS5003;71262;-25.924;28.194;2024-01-16T13:43:36;34;25;
55485;PMS5003;71262;-25.924;28.194;2024-01-16T13:46:01;17;14;
55485;PMS5003;71262;-25.924;28.194;2024-01-16T13:48:27;16;15;
55485;PMS5003;71262;-25.924;28.194;2024-01-16T13:50:52;20;16;
55485;PMS5003;71262;-25.924;28.194;2024-01-16T13:53:17;17;13;
55485;PMS5003;71262;-25.924;28.194;2024-01-16T13:55:43;17;11;
55485;PMS5003;71262;-25.924;28.194;2024-01-16T13:58:09;18;16;
55485;PMS5003;71262;-25.924;28.194;2024-01-16T14:00:35;14;14;
55485;PMS5003;71262;-25.924;28.194;2024-01-16T14:03:01;21;16;
55485;PMS5003;71262;-25.924;28.194;2024-01-16T14:05:26;21;17;
55485;PMS5003;71262;-25.924;28.194;2024-01-16T14:07:51;18;16;
55485;PMS5003;71262;-25.924;28.194;2024-01-16T14:10:17;16;15;
55485;PMS5003;71262;-25.924;28.194;2024-01-16T14:12:43;21;17;
55485;PMS5003;71262;-25.924;28.194;2024-01-16T14:15:08;21;20;
55485;PMS5003;71262;-25.924;28.194;2024-01-16T14:17:32;16;15;
55485;PMS5003;71262;-25.924;28.194;2024-01-16T14:19:58;19;17;
55485;PMS5003;71262;-25.924;28.194;2024-01-16T14:22:24;17;17;
55485;PMS5003;71262;-25.924;28.194;2024-01-16T14:24:49;19;17;
55485;PMS5003;71262;-25.924;28.194;2024-01-16T14:27:16;20;17;
55485;PMS5003;71262;-25.924;28.194;2024-01-16T14:29:41;17;15;
55485;PMS5003;71262;-25.924;28.194;2024-01-16T14:32:06;20;16;
55485;PMS5003;71262;-25.924;28.194;2024-01-16T14:34:32;15;13;
55485;PMS5003;71262;-25.924;28.194;2024-01-16T14:36:58;18;14;
55485;PMS5003;71262;-25.924;28.194;2024-01-16T14:39:23;19;18;
55485;PMS5003;71262;-25.924;28.194;2024-01-16T14:41:49;20;16;
55485;PMS5003;71262;-25.924;28.194;2024-01-16T14:44:15;22;15;
55485;PMS5003;71262;-25.924;28.194;2024-01-16T14:46:40;20;16;
55485;PMS5003;71262;-25.924;28.194;2024-01-16T14:49:06;14;14;
55485;PMS5003;71262;-25.924;28.194;2024-01-16T14:51:31;17;15;
55485;PMS5003;71262;-25.924;28.194;2024-01-16T14:53:57;20;14;
55485;PMS5003;71262;-25.924;28.194;2024-01-16T14:56:22;15;12;
55485;PMS5003;71262;-25.924;28.194;2024-01-16T14:58:48;17;15;
55485;PMS5003;71262;-25.924;28.194;2024-01-16T15:01:13;19;17;
55485;PMS5003;71262;-25.924;28.194;2024-01-16T15:03:39;16;15;
55485;PMS5003;71262;-25.924;28.194;2024-01-16T15:06:05;20;18;
55485;PMS5003;71262;-25.924;28.194;2024-01-16T15:08:30;23;16;
55485;PMS5003;71262;-25.924;28.194;2024-01-16T15:10:56;17;16;
55485;PMS5003;71262;-25.924;28.194;2024-01-16T15:13:22;17;14;
55485;PMS5003;71262;-25.924;28.194;2024-01-16T15:15:48;14;14;
55485;PMS5003;71262;-25.924;28.194;2024-01-16T15:18:13;23;22;
55485;PMS5003;71262;-25.924;28.194;2024-01-16T15:20:38;26;23;
55485;PMS5003;71262;-25.924;28.194;2024-01-16T15:23:04;29;25;
55485;PMS5003;71262;-25.924;28.194;2024-01-16T15:25:30;23;20;
55485;PMS5003;71262;-25.924;28.194;2024-01-16T15:27:55;23;20;
55485;PMS5003;71262;-25.924;28.194;2024-01-16T15:30:21;20;16;
55485;PMS5003;71262;-25.924;28.194;2024-01-16T15:32:46;21;16;
55485;PMS5003;71262;-25.924;28.194;2024-01-16T15:35:12;17;16;
55485;PMS5003;71262;-25.924;28.194;2024-01-16T15:37:38;12;11;
55485;PMS5003;71262;-25.924;28.194;2024-01-16T15:40:04;15;13;
55485;PMS5003;71262;-25.924;28.194;2024-01-16T15:42:29;14;13;
55485;PMS5003;71262;-25.924;28.194;2024-01-16T15:44:55;14;12;
55485;PMS5003;71262;-25.924;28.194;2024-01-16T15:47:21;13;12;
55485;PMS5003;71262;-25.924;28.194;2024-01-16T15:49:47;9;8;
55485;PMS5003;71262;-25.924;28.194;2024-01-16T15:52:12;11;8;